Time;durP1;ratioP1;P1;durP2;ratioP2;P2;SDS_P1;SDS_P2;PMS_P1;PMS_P2;Temp;Humidity;BMP_temperature;BMP_pressure;BME280_temperature;BME280_humidity;BME280_pressure;Samples;Min_cycle;Max_cycle;Signal;HPM_P1;HPM_P2
2023/07/31 00:00:08;;;;;;;108.03;103.78;;;12.60;87.10;;;;;;5109867;28;20566;-72
2023/07/31 00:02:34;;;;;;;112.78;108.30;;;12.50;87.00;;;;;;5108942;28;20114;-72
2023/07/31 00:05:01;;;;;;;96.90;92.70;;;12.50;87.60;;;;;;5108971;28;20035;-72
2023/07/31 00:07:26;;;;;;;129.18;124.13;;;12.50;87.70;;;;;;5109636;28;20039;-72
2023/07/31 00:09:53;;;;;;;133.32;128.10;;;12.50;87.70;;;;;;5111759;28;20085;-72
2023/07/31 00:12:19;;;;;;;120.32;115.75;;;12.40;87.60;;;;;;5109092;28;20706;-72
2023/07/31 00:14:45;;;;;;;132.23;127.07;;;12.50;87.90;;;;;;5110266;28;20036;-72
2023/07/31 00:17:11;;;;;;;157.32;150.68;;;12.40;87.50;;;;;;5109513;28;20047;-72
2023/07/31 00:19:37;;;;;;;148.32;142.25;;;12.40;87.90;;;;;;5089012;28;20035;-72
2023/07/31 00:22:03;;;;;;;142.65;137.25;;;12.40;87.80;;;;;;5109452;28;20046;-72
2023/07/31 00:24:29;;;;;;;136.27;131.20;;;12.40;87.80;;;;;;5108726;28;20492;-72
2023/07/31 00:26:54;;;;;;;134.65;129.55;;;12.40;87.80;;;;;;5108822;27;20024;-72
2023/07/31 00:29:20;;;;;;;150.45;144.02;;;12.40;87.90;;;;;;5091022;28;20020;-73
2023/07/31 00:31:46;;;;;;;179.43;172.35;;;12.40;88.20;;;;;;5106720;27;20035;-72
2023/07/31 00:34:11;;;;;;;154.63;148.40;;;12.20;88.20;;;;;;5104857;28;20074;-73
2023/07/31 00:36:37;;;;;;;161.35;155.02;;;12.10;88.80;;;;;;5105365;28;20035;-72
2023/07/31 00:39:04;;;;;;;205.93;197.90;;;12.10;88.80;;;;;;5106379;28;20059;-73
2023/07/31 00:41:30;;;;;;;165.95;159.40;;;12.10;89.00;;;;;;5110363;27;20410;-72
2023/07/31 00:43:55;;;;;;;165.75;159.30;;;12.00;89.20;;;;;;5108793;27;20043;-72
2023/07/31 00:46:21;;;;;;;170.50;163.52;;;12.00;88.90;;;;;;5109771;28;20088;-73
2023/07/31 00:48:47;;;;;;;157.32;151.25;;;12.00;89.30;;;;;;5108579;28;20110;-73
2023/07/31 00:51:13;;;;;;;137.18;131.63;;;12.20;89.60;;;;;;5108647;28;20027;-72
2023/07/31 00:53:40;;;;;;;178.25;171.15;;;12.10;89.70;;;;;;5107320;28;20043;-72
2023/07/31 00:56:06;;;;;;;164.40;157.70;;;12.20;89.70;;;;;;5108453;27;20079;-72
2023/07/31 00:58:31;;;;;;;177.85;170.63;;;12.20;89.60;;;;;;5107803;28;20070;-72
2023/07/31 01:00:57;;;;;;;174.68;167.82;;;12.00;89.70;;;;;;5105867;28;20035;-71
2023/07/31 01:03:23;;;;;;;150.73;144.77;;;12.20;90.00;;;;;;5108010;28;20107;-72
2023/07/31 01:06:12;;;;;;;155.23;148.60;;;12.20;89.30;;;;;;5100697;28;20047;-72
2023/07/31 01:08:56;;;;;;;133.00;127.85;;;12.20;88.90;;;;;;5107130;28;20034;-71
2023/07/31 01:11:27;;;;;;;153.55;147.57;;;12.10;88.80;;;;;;5103805;27;20024;-72
2023/07/31 01:13:55;;;;;;;142.65;136.85;;;12.10;89.10;;;;;;5107146;28;20107;-72
2023/07/31 01:16:21;;;;;;;139.80;134.48;;;12.10;89.10;;;;;;5107280;28;20477;-72
2023/07/31 01:18:46;;;;;;;165.05;158.48;;;12.00;89.30;;;;;;5106565;28;20042;-72
2023/07/31 01:21:28;;;;;;;161.85;155.70;;;12.00;89.40;;;;;;5108608;28;20039;-72
2023/07/31 01:24:33;;;;;;;174.98;167.85;;;12.00;89.50;;;;;;5105049;28;20045;-72
2023/07/31 01:27:10;;;;;;;137.93;132.40;;;12.00;90.00;;;;;;5053127;28;20039;-73
2023/07/31 01:29:48;;;;;;;148.55;142.45;;;12.10;89.70;;;;;;5106411;28;20040;-72
2023/07/31 01:32:17;;;;;;;145.85;140.32;;;12.00;89.40;;;;;;5107184;28;20711;-72
2023/07/31 01:34:44;;;;;;;159.73;153.52;;;11.90;89.30;;;;;;5108365;28;20033;-72
2023/07/31 01:37:09;;;;;;;180.63;173.75;;;12.00;89.90;;;;;;5086891;28;20038;-72
2023/07/31 01:39:35;;;;;;;180.43;173.27;;;11.90;90.00;;;;;;5107964;28;20032;-72
2023/07/31 01:42:01;;;;;;;171.82;165.30;;;11.90;90.00;;;;;;5109059;27;20075;-71
2023/07/31 01:44:26;;;;;;;176.88;169.38;;;11.90;90.00;;;;;;5106249;28;20027;-72
2023/07/31 01:46:52;;;;;;;170.00;163.20;;;11.90;90.00;;;;;;5109746;28;20039;-72
2023/07/31 01:49:18;;;;;;;191.13;183.68;;;11.90;89.80;;;;;;5108445;27;20028;-73
2023/07/31 01:51:43;;;;;;;210.30;201.55;;;11.90;89.90;;;;;;5108387;28;20440;-72
2023/07/31 01:54:09;;;;;;;221.35;212.65;;;11.90;90.10;;;;;;5106668;28;20042;-72
2023/07/31 01:56:35;;;;;;;207.35;199.25;;;11.80;90.10;;;;;;5106490;27;20047;-72
2023/07/31 01:59:00;;;;;;;224.27;215.52;;;11.90;90.30;;;;;;5106554;28;20032;-72
2023/07/31 02:01:26;;;;;;;199.13;191.45;;;11.90;90.30;;;;;;5107737;28;20089;-72
2023/07/31 02:03:52;;;;;;;201.82;194.00;;;11.80;90.10;;;;;;5107792;28;20024;-72
2023/07/31 02:06:18;;;;;;;226.18;217.55;;;11.70;90.10;;;;;;5088677;28;20050;-72
2023/07/31 02:08:43;;;;;;;210.65;202.52;;;11.60;90.60;;;;;;5108816;28;20024;-72
2023/07/31 02:11:09;;;;;;;201.52;194.07;;;11.60;90.30;;;;;;5107068;28;20038;-72
2023/07/31 02:13:34;;;;;;;195.15;187.85;;;11.60;90.30;;;;;;5109630;28;20031;-71
2023/07/31 02:16:01;;;;;;;194.63;186.95;;;11.60;90.70;;;;;;5103085;28;20097;-73
2023/07/31 02:18:26;;;;;;;206.43;198.43;;;11.60;90.30;;;;;;5088393;28;20427;-72
2023/07/31 02:20:52;;;;;;;218.25;209.90;;;11.60;90.40;;;;;;5107760;28;20066;-72
2023/07/31 02:23:19;;;;;;;203.32;195.60;;;11.60;90.40;;;;;;5106266;28;20118;-72
2023/07/31 02:25:45;;;;;;;188.90;181.90;;;11.60;90.40;;;;;;5106352;27;20081;-72
2023/07/31 02:28:11;;;;;;;206.70;198.50;;;11.50;90.30;;;;;;5107668;28;20027;-72
2023/07/31 02:30:36;;;;;;;207.23;199.20;;;11.60;90.40;;;;;;5108845;28;20035;-72
2023/07/31 02:33:02;;;;;;;204.90;197.32;;;11.60;90.30;;;;;;5106750;28;20038;-72
2023/07/31 02:35:28;;;;;;;192.52;185.15;;;11.60;90.40;;;;;;5108824;28;20043;-73
2023/07/31 02:37:53;;;;;;;213.68;205.45;;;11.60;90.30;;;;;;5104047;28;20168;-72
2023/07/31 02:40:19;;;;;;;216.07;208.05;;;11.60;90.40;;;;;;5106199;28;20128;-72
2023/07/31 02:42:45;;;;;;;205.10;196.90;;;11.60;90.30;;;;;;5088606;28;20038;-72
2023/07/31 02:45:10;;;;;;;211.77;203.60;;;11.60;90.40;;;;;;5107314;28;20047;-72
2023/07/31 02:47:36;;;;;;;207.27;199.32;;;11.60;90.20;;;;;;5105476;28;20040;-72
2023/07/31 02:50:03;;;;;;;204.80;197.23;;;11.50;90.20;;;;;;5087182;28;20032;-72
2023/07/31 02:52:29;;;;;;;224.18;215.60;;;11.60;90.20;;;;;;5107794;28;20031;-72
2023/07/31 02:54:54;;;;;;;234.15;225.25;;;11.60;90.10;;;;;;5106434;28;20047;-72
2023/07/31 02:57:20;;;;;;;234.43;225.60;;;11.50;90.30;;;;;;5105605;28;20039;-71
2023/07/31 02:59:45;;;;;;;228.43;219.65;;;11.50;90.60;;;;;;5102986;28;20446;-72
2023/07/31 03:02:12;;;;;;;233.45;224.63;;;11.50;90.60;;;;;;5105179;28;20038;-72
2023/07/31 03:04:38;;;;;;;227.30;218.75;;;11.60;90.40;;;;;;5107321;28;20144;-72
2023/07/31 03:07:04;;;;;;;240.68;231.50;;;11.60;90.50;;;;;;5100935;28;20085;-72
2023/07/31 03:09:29;;;;;;;236.93;227.60;;;11.70;90.70;;;;;;5105784;28;20042;-72
2023/07/31 03:11:55;;;;;;;229.82;220.95;;;11.70;90.60;;;;;;5105042;28;20497;-72
2023/07/31 03:14:21;;;;;;;219.73;211.40;;;11.70;90.20;;;;;;5105939;28;20108;-72
2023/07/31 03:16:46;;;;;;;222.45;214.32;;;11.80;90.20;;;;;;5105667;28;20059;-72
2023/07/31 03:19:12;;;;;;;220.98;212.68;;;11.80;90.30;;;;;;5107058;28;20539;-71
2023/07/31 03:21:38;;;;;;;221.00;212.65;;;11.90;90.10;;;;;;5109966;28;20481;-72
2023/07/31 03:24:04;;;;;;;212.77;204.82;;;12.00;90.10;;;;;;5108664;28;20502;-72
2023/07/31 03:26:31;;;;;;;240.57;231.52;;;12.00;89.50;;;;;;5106399;28;20043;-73
2023/07/31 03:28:57;;;;;;;221.50;212.23;;;11.90;89.00;;;;;;5109626;28;20024;-72
2023/07/31 03:31:23;;;;;;;235.18;226.25;;;12.00;89.40;;;;;;5110281;28;20115;-72
2023/07/31 03:33:48;;;;;;;233.07;224.57;;;12.00;89.80;;;;;;5111197;28;20408;-72
2023/07/31 03:36:14;;;;;;;245.73;236.38;;;12.00;89.90;;;;;;5112833;28;20027;-72
2023/07/31 03:38:39;;;;;;;235.85;227.25;;;12.00;90.00;;;;;;5113579;27;20114;-73
2023/07/31 03:41:06;;;;;;;204.70;197.27;;;12.10;89.50;;;;;;5109598;28;20040;-72
2023/07/31 03:43:33;;;;;;;227.57;219.02;;;12.10;88.70;;;;;;5108309;28;20312;-72
2023/07/31 03:46:02;;;;;;;215.63;207.70;;;12.10;89.70;;;;;;5112238;28;20163;-72
2023/07/31 03:48:28;;;;;;;211.70;203.82;;;12.20;88.90;;;;;;5111914;28;20498;-72
2023/07/31 03:50:54;;;;;;;200.38;192.70;;;12.20;89.00;;;;;;5109086;28;20043;-72
2023/07/31 03:53:20;;;;;;;229.77;221.35;;;12.20;88.40;;;;;;5094229;28;20064;-73
2023/07/31 03:55:46;;;;;;;226.68;218.18;;;12.20;89.00;;;;;;5110944;28;20104;-72
2023/07/31 03:58:11;;;;;;;217.00;209.05;;;12.20;88.70;;;;;;5113565;28;20073;-72
2023/07/31 04:00:37;;;;;;;213.05;205.07;;;12.20;89.00;;;;;;5116033;28;20038;-72
2023/07/31 04:03:03;;;;;;;226.30;217.82;;;12.20;88.30;;;;;;5111110;28;20096;-72
2023/07/31 04:05:31;;;;;;;221.00;212.52;;;12.20;88.80;;;;;;5110266;28;20066;-72
2023/07/31 04:07:57;;;;;;;210.35;202.35;;;12.30;89.10;;;;;;5108580;27;20393;-72
2023/07/31 04:10:23;;;;;;;196.38;189.10;;;12.30;88.30;;;;;;5112009;28;20027;-72
2023/07/31 04:12:48;;;;;;;231.30;222.85;;;12.30;88.00;;;;;;5110862;28;20023;-72
2023/07/31 04:15:14;;;;;;;202.52;195.18;;;12.30;88.10;;;;;;5110248;28;20039;-73
2023/07/31 04:17:40;;;;;;;199.98;192.10;;;12.30;88.10;;;;;;5106919;28;20134;-73
2023/07/31 04:20:06;;;;;;;196.18;188.73;;;12.40;88.00;;;;;;5104962;28;20028;-72
2023/07/31 04:22:32;;;;;;;205.35;197.55;;;12.40;87.80;;;;;;5103896;28;20136;-71
2023/07/31 04:24:57;;;;;;;207.27;199.45;;;12.60;87.60;;;;;;5092494;28;20115;-72
2023/07/31 04:27:23;;;;;;;205.95;198.40;;;12.60;87.90;;;;;;5110559;28;20477;-72
2023/07/31 04:29:49;;;;;;;205.35;197.77;;;12.70;87.50;;;;;;5098906;28;20115;-72
2023/07/31 04:32:16;;;;;;;221.05;212.75;;;12.70;87.30;;;;;;5109806;28;20486;-72
2023/07/31 04:34:42;;;;;;;230.77;222.23;;;12.80;87.20;;;;;;5104569;28;20119;-72
2023/07/31 04:37:08;;;;;;;213.23;205.13;;;12.90;88.10;;;;;;5110814;27;20513;-72
2023/07/31 04:39:34;;;;;;;219.32;211.30;;;12.80;87.50;;;;;;5108980;28;20043;-72
2023/07/31 04:41:59;;;;;;;209.80;202.05;;;12.80;88.20;;;;;;5108331;28;20040;-72
2023/07/31 04:44:25;;;;;;;231.65;222.23;;;12.80;88.20;;;;;;5089006;28;20113;-72
2023/07/31 04:46:50;;;;;;;223.55;215.35;;;12.70;88.10;;;;;;5108820;28;20060;-72
2023/07/31 04:49:16;;;;;;;221.82;213.73;;;12.70;88.60;;;;;;5109113;28;20028;-72
2023/07/31 04:51:42;;;;;;;202.95;195.10;;;12.60;88.90;;;;;;5110318;27;20038;-72
2023/07/31 04:54:27;;;;;;;215.40;207.45;;;12.60;89.10;;;;;;5084603;28;20028;-72
2023/07/31 04:56:53;;;;;;;199.85;192.45;;;12.60;90.10;;;;;;5107190;28;20047;-72
2023/07/31 04:59:19;;;;;;;196.20;188.88;;;12.70;88.00;;;;;;5087121;28;20038;-72
2023/07/31 05:01:47;;;;;;;210.75;202.68;;;12.80;87.90;;;;;;5104852;28;20110;-72
2023/07/31 05:04:14;;;;;;;204.98;197.07;;;12.90;87.40;;;;;;5107745;28;20039;-72
2023/07/31 05:06:40;;;;;;;201.18;193.70;;;13.00;87.60;;;;;;5091878;28;20044;-72
2023/07/31 05:09:06;;;;;;;220.57;212.45;;;13.00;86.90;;;;;;5110603;28;20115;-73
2023/07/31 05:11:31;;;;;;;200.52;192.85;;;13.00;87.20;;;;;;5108691;27;20193;-72
2023/07/31 05:13:57;;;;;;;200.50;193.10;;;13.00;86.60;;;;;;5092268;28;20477;-72
2023/07/31 05:16:22;;;;;;;200.75;192.68;;;13.10;86.50;;;;;;5108313;28;20528;-72
2023/07/31 05:18:48;;;;;;;235.93;227.07;;;13.10;87.20;;;;;;5109860;28;20053;-73
2023/07/31 05:21:14;;;;;;;216.80;208.82;;;13.20;86.80;;;;;;5103888;28;20039;-72
2023/07/31 05:23:39;;;;;;;210.43;202.63;;;13.10;86.60;;;;;;5070779;28;20084;-73
2023/07/31 05:26:06;;;;;;;234.32;225.65;;;13.30;87.50;;;;;;5107041;28;20032;-73
2023/07/31 05:28:33;;;;;;;196.30;188.70;;;13.20;87.80;;;;;;5089865;28;20122;-73
2023/07/31 05:31:00;;;;;;;229.63;220.88;;;13.30;88.00;;;;;;5109225;28;20028;-73
2023/07/31 05:33:25;;;;;;;209.77;201.32;;;13.30;88.00;;;;;;5106265;27;20026;-73
2023/07/31 05:35:51;;;;;;;219.38;211.20;;;13.40;86.80;;;;;;5104797;28;20035;-73
2023/07/31 05:38:17;;;;;;;210.45;202.45;;;13.60;87.90;;;;;;5107555;27;20036;-73
2023/07/31 05:40:43;;;;;;;213.38;205.45;;;13.70;87.30;;;;;;5106358;28;20453;-82
2023/07/31 05:43:09;;;;;;;219.63;211.32;;;13.70;86.20;;;;;;5105388;28;20028;-75
2023/07/31 05:45:35;;;;;;;230.20;220.90;;;13.80;87.60;;;;;;5103945;28;20051;-78
2023/07/31 05:48:01;;;;;;;209.48;201.27;;;13.70;86.30;;;;;;5104167;28;20036;-75
2023/07/31 05:50:27;;;;;;;229.40;220.82;;;13.80;87.20;;;;;;5094784;28;20107;-76
2023/07/31 05:52:52;;;;;;;206.65;199.02;;;13.80;87.70;;;;;;5090104;28;20069;-76
2023/07/31 05:55:18;;;;;;;228.73;220.27;;;13.90;86.70;;;;;;5109718;28;20545;-75
2023/07/31 05:57:45;;;;;;;226.85;218.25;;;14.00;86.60;;;;;;5106823;28;20035;-74
2023/07/31 06:00:12;;;;;;;231.85;223.00;;;14.10;86.40;;;;;;5104081;28;20121;-74
2023/07/31 06:02:38;;;;;;;210.98;203.13;;;14.30;85.70;;;;;;5105110;28;20046;-74
2023/07/31 06:05:05;;;;;;;259.92;249.00;;;14.40;85.20;;;;;;5104946;27;20485;-74
2023/07/31 06:07:31;;;;;;;226.43;217.93;;;14.40;84.50;;;;;;5106509;28;20200;-74
2023/07/31 06:10:02;;;;;;;250.73;241.10;;;14.70;85.10;;;;;;5091867;28;20046;-74
2023/07/31 06:12:28;;;;;;;228.05;219.50;;;14.60;83.60;;;;;;5091138;28;20396;-75
2023/07/31 06:14:55;;;;;;;223.73;215.55;;;14.70;83.20;;;;;;5104087;28;20115;-74
2023/07/31 06:17:21;;;;;;;228.25;219.43;;;14.70;82.90;;;;;;5082822;28;20038;-74
2023/07/31 06:19:47;;;;;;;267.77;257.27;;;14.80;82.50;;;;;;5109084;27;20143;-75
2023/07/31 06:22:12;;;;;;;226.23;217.63;;;15.00;84.10;;;;;;5104751;28;20035;-75
2023/07/31 06:24:38;;;;;;;237.05;228.45;;;15.10;81.50;;;;;;5105186;28;20039;-76
2023/07/31 06:27:05;;;;;;;275.42;264.65;;;15.30;81.30;;;;;;5109142;28;20437;-75
2023/07/31 06:29:31;;;;;;;219.27;210.73;;;15.60;82.40;;;;;;5096387;28;20036;-74
2023/07/31 06:31:57;;;;;;;207.07;199.38;;;15.70;78.70;;;;;;5120517;28;20081;-75
2023/07/31 06:34:22;;;;;;;208.95;201.18;;;16.00;78.90;;;;;;5111427;28;20027;-75
2023/07/31 06:36:48;;;;;;;227.57;219.05;;;16.40;78.10;;;;;;5109621;28;20111;-75
2023/07/31 06:39:14;;;;;;;189.70;182.82;;;16.40;75.10;;;;;;5107220;28;20486;-74
2023/07/31 06:41:39;;;;;;;184.77;178.02;;;16.50;74.80;;;;;;5087982;28;20552;-73
2023/07/31 06:44:05;;;;;;;185.30;178.63;;;16.50;74.70;;;;;;5090350;28;20039;-74
2023/07/31 06:46:31;;;;;;;192.27;185.35;;;16.50;74.00;;;;;;5101961;28;20032;-74
2023/07/31 06:48:57;;;;;;;174.70;167.60;;;16.70;75.10;;;;;;5105160;27;20119;-74
2023/07/31 06:51:22;;;;;;;185.07;178.32;;;16.70;72.80;;;;;;5102564;28;20381;-74
2023/07/31 06:53:48;;;;;;;161.18;155.02;;;16.80;73.20;;;;;;5106464;28;20439;-73
2023/07/31 06:56:13;;;;;;;176.50;169.98;;;16.90;72.30;;;;;;5104866;28;20097;-74
2023/07/31 06:58:39;;;;;;;183.23;176.23;;;17.00;72.80;;;;;;5102537;28;20443;-74
2023/07/31 07:01:05;;;;;;;223.55;215.43;;;17.00;73.30;;;;;;5105018;28;20130;-74
2023/07/31 07:03:32;;;;;;;107.38;103.10;;;17.10;74.20;;;;;;5104639;28;20035;-74
2023/07/31 07:05:58;;;;;;;116.53;112.03;;;17.10;69.10;;;;;;5108213;28;20038;-74
2023/07/31 07:08:24;;;;;;;132.70;127.63;;;17.20;67.80;;;;;;5105346;28;20020;-73
2023/07/31 07:10:50;;;;;;;81.68;78.30;;;17.40;67.30;;;;;;5106247;28;20049;-73
2023/07/31 07:13:16;;;;;;;117.65;113.35;;;17.40;64.60;;;;;;5107389;28;20028;-75
2023/07/31 07:15:41;;;;;;;93.70;90.10;;;17.50;65.40;;;;;;5100718;28;20085;-73
2023/07/31 07:18:07;;;;;;;88.35;84.63;;;17.70;64.30;;;;;;5105702;28;20123;-74
2023/07/31 07:20:33;;;;;;;101.63;97.18;;;17.80;62.50;;;;;;5107144;28;20032;-74
2023/07/31 07:22:58;;;;;;;89.60;86.05;;;18.10;63.90;;;;;;5107009;28;20028;-74
2023/07/31 07:25:24;;;;;;;69.22;66.55;;;18.40;62.70;;;;;;5087495;28;20572;-73
2023/07/31 07:27:50;;;;;;;64.85;62.33;;;18.20;61.30;;;;;;5105842;28;20023;-74
2023/07/31 07:30:15;;;;;;;65.85;63.00;;;18.00;62.30;;;;;;5104003;28;20020;-75
2023/07/31 07:32:41;;;;;;;63.35;60.75;;;18.10;60.40;;;;;;5100373;28;20103;-73
2023/07/31 07:35:07;;;;;;;67.68;65.03;;;18.10;61.40;;;;;;5101306;28;20100;-78
2023/07/31 07:37:33;;;;;;;70.50;67.80;;;18.00;60.80;;;;;;5070406;28;20064;-78
2023/07/31 07:39:59;;;;;;;95.88;91.65;;;17.90;60.60;;;;;;5103563;28;20043;-78
2023/07/31 07:42:24;;;;;;;75.43;72.53;;;17.80;63.70;;;;;;5106572;28;20051;-77
2023/07/31 07:44:50;;;;;;;71.53;68.65;;;18.00;61.80;;;;;;5107000;28;20044;-77
2023/07/31 07:47:16;;;;;;;126.45;121.75;;;18.20;61.40;;;;;;5089143;28;20072;-77
2023/07/31 07:49:42;;;;;;;90.78;87.15;;;18.00;61.10;;;;;;5087534;28;20031;-79
2023/07/31 07:52:07;;;;;;;154.63;145.70;;;18.10;60.60;;;;;;5084836;28;20054;-80
2023/07/31 07:54:33;;;;;;;63.42;60.83;;;18.10;58.50;;;;;;5076435;28;20040;-78
2023/07/31 07:56:59;;;;;;;71.32;68.28;;;18.00;59.50;;;;;;5088810;28;20047;-75
2023/07/31 07:59:24;;;;;;;57.60;55.25;;;17.90;60.60;;;;;;5105769;28;20026;-75
2023/07/31 08:01:50;;;;;;;62.65;60.05;;;17.90;60.10;;;;;;5103455;28;20098;-75
2023/07/31 08:04:16;;;;;;;82.85;79.57;;;18.10;59.10;;;;;;5090585;28;20039;-76
2023/07/31 08:06:43;;;;;;;99.72;95.97;;;18.50;58.50;;;;;;5105911;28;20035;-77
2023/07/31 08:09:09;;;;;;;71.10;67.68;;;18.50;60.00;;;;;;5091895;28;20034;-75
2023/07/31 08:11:35;;;;;;;81.28;77.63;;;18.60;59.10;;;;;;5094797;28;20040;-74
2023/07/31 08:14:00;;;;;;;75.03;71.88;;;19.00;57.50;;;;;;5105287;28;20039;-75
2023/07/31 08:16:26;;;;;;;58.33;56.08;;;19.30;56.30;;;;;;5104101;28;20375;-75
2023/07/31 08:18:52;;;;;;;58.38;55.75;;;19.60;55.60;;;;;;5087246;28;20032;-74
2023/07/31 08:21:17;;;;;;;91.88;88.35;;;19.30;57.90;;;;;;5091792;28;20043;-73
2023/07/31 08:23:43;;;;;;;127.85;123.07;;;19.30;55.50;;;;;;5106712;28;20030;-73
2023/07/31 08:26:15;;;;;;;94.35;90.65;;;19.30;53.70;;;;;;5109947;28;20070;-74
2023/07/31 08:28:41;;;;;;;166.35;160.32;;;19.10;55.40;;;;;;5109692;28;20111;-74
2023/07/31 08:31:06;;;;;;;101.90;98.20;;;18.90;53.70;;;;;;5105108;28;20118;-74
2023/07/31 08:33:32;;;;;;;106.50;102.22;;;19.00;56.00;;;;;;5107617;27;20039;-74
2023/07/31 08:35:59;;;;;;;145.90;140.13;;;19.30;55.00;;;;;;5107506;28;20051;-74
2023/07/31 08:38:26;;;;;;;157.63;151.80;;;19.60;53.10;;;;;;5073007;28;20032;-74
2023/07/31 08:40:52;;;;;;;182.20;175.57;;;19.80;52.80;;;;;;5106598;28;20019;-75
2023/07/31 08:43:18;;;;;;;123.43;118.88;;;20.10;51.70;;;;;;5107609;28;20054;-75
2023/07/31 08:45:45;;;;;;;177.30;171.02;;;20.30;53.00;;;;;;5092216;28;20498;-74
2023/07/31 08:48:12;;;;;;;209.30;200.73;;;20.10;52.10;;;;;;5104518;28;20056;-75
2023/07/31 08:50:38;;;;;;;164.90;157.32;;;20.30;50.70;;;;;;5091714;28;20489;-75
2023/07/31 08:53:04;;;;;;;129.90;125.05;;;20.30;48.30;;;;;;5105964;28;20032;-75
2023/07/31 08:55:31;;;;;;;116.07;111.88;;;21.00;49.30;;;;;;5076225;27;20036;-75
2023/07/31 08:57:58;;;;;;;166.68;160.68;;;21.00;49.60;;;;;;5090513;28;20051;-73
2023/07/31 09:00:25;;;;;;;154.00;148.13;;;20.80;50.70;;;;;;5107621;28;20115;-74
2023/07/31 09:03:02;;;;;;;187.43;180.27;;;20.60;49.00;;;;;;5092025;28;20028;-74
2023/07/31 09:05:31;;;;;;;184.95;178.15;;;20.40;50.50;;;;;;5109739;28;20036;-74
2023/07/31 09:07:57;;;;;;;135.73;130.73;;;20.30;50.40;;;;;;5106697;28;20031;-74
2023/07/31 09:10:23;;;;;;;151.90;146.05;;;20.80;49.40;;;;;;5110848;28;20731;-74
2023/07/31 09:12:51;;;;;;;192.73;185.73;;;21.00;48.50;;;;;;5106806;28;20047;-74
2023/07/31 09:15:17;;;;;;;178.07;171.48;;;21.20;49.10;;;;;;5090275;28;20071;-73
2023/07/31 09:17:43;;;;;;;176.82;170.43;;;21.20;47.80;;;;;;5090706;28;20066;-73
2023/07/31 09:20:21;;;;;;;180.55;173.98;;;21.30;48.20;;;;;;5109827;28;20035;-73
2023/07/31 09:22:48;;;;;;;256.23;246.40;;;21.60;48.10;;;;;;5104896;28;20031;-73
2023/07/31 09:25:22;;;;;;;236.65;227.93;;;21.80;45.10;;;;;;5084192;28;20404;-73
2023/07/31 09:27:59;;;;;;;186.18;179.18;;;22.00;46.40;;;;;;5102659;28;20493;-72
2023/07/31 09:30:25;;;;;;;1999.90;999.90;;;22.90;45.00;;;;;;5103626;28;20024;-74
2023/07/31 09:32:59;;;;;;;1999.90;999.90;;;22.30;44.00;;;;;;5104882;28;20027;-73
2023/07/31 09:35:31;;;;;;;1999.90;999.90;;;22.10;45.20;;;;;;5103607;28;20031;-73
2023/07/31 09:38:08;;;;;;;1999.90;999.90;;;21.90;45.50;;;;;;5107245;28;20564;-73
2023/07/31 09:40:36;;;;;;;1999.90;999.90;;;22.30;45.20;;;;;;5105028;28;20039;-73
2023/07/31 09:43:21;;;;;;;1999.90;999.90;;;22.00;43.70;;;;;;5109412;28;20031;-73
2023/07/31 09:45:48;;;;;;;1999.90;999.90;;;22.00;49.00;;;;;;5109162;28;20084;-73
2023/07/31 09:48:17;;;;;;;1999.90;999.90;;;21.90;44.70;;;;;;5107023;28;20024;-72
2023/07/31 09:50:49;;;;;;;1999.90;999.90;;;21.80;46.10;;;;;;5090387;28;20079;-72
2023/07/31 09:53:16;;;;;;;1999.90;999.90;;;22.10;45.90;;;;;;5106725;28;20027;-72
2023/07/31 09:55:43;;;;;;;318.20;305.45;;;22.40;47.70;;;;;;5105253;28;20497;-72
2023/07/31 09:58:10;;;;;;;1999.90;999.90;;;22.50;48.20;;;;;;5107096;28;20573;-73
2023/07/31 10:00:36;;;;;;;1999.90;999.90;;;22.20;44.80;;;;;;5104252;28;20084;-73
2023/07/31 10:03:10;;;;;;;1999.90;999.90;;;22.00;44.70;;;;;;5102674;28;20039;-72
2023/07/31 10:05:39;;;;;;;1999.90;999.90;;;22.20;45.50;;;;;;5088822;28;20397;-72
2023/07/31 10:08:08;;;;;;;1999.90;999.90;;;21.80;45.20;;;;;;5104591;28;20031;-72
2023/07/31 10:10:36;;;;;;;1999.90;999.90;;;22.20;44.80;;;;;;5087338;28;20481;-72
2023/07/31 10:13:03;;;;;;;1999.90;999.90;;;22.20;47.00;;;;;;5106461;28;20031;-73
2023/07/31 10:15:30;;;;;;;1999.90;999.90;;;22.70;45.00;;;;;;5105658;27;20035;-73
2023/07/31 10:17:57;;;;;;;1999.90;999.90;;;22.50;44.10;;;;;;5106232;28;20020;-72
2023/07/31 10:20:24;;;;;;;1999.90;999.90;;;22.80;45.90;;;;;;5100851;28;20055;-73
2023/07/31 10:22:51;;;;;;;1999.90;999.90;;;22.50;46.70;;;;;;5103435;28;20122;-73
2023/07/31 10:25:19;;;;;;;1999.90;999.90;;;22.70;43.20;;;;;;5089004;28;20075;-72
2023/07/31 10:27:47;;;;;;;1999.90;999.90;;;23.20;43.30;;;;;;5089234;28;20032;-73
2023/07/31 10:30:33;;;;;;;1999.90;999.90;;;22.90;40.80;;;;;;5090145;28;20020;-72
2023/07/31 10:32:59;;;;;;;1999.90;999.90;;;22.20;42.90;;;;;;5106710;28;20102;-72
2023/07/31 10:35:25;;;;;;;1999.90;999.90;;;22.90;46.70;;;;;;5104760;28;20469;-72
2023/07/31 10:37:52;;;;;;;1999.90;999.90;;;23.30;43.10;;;;;;5087734;28;20032;-72
2023/07/31 10:40:23;;;;;;;1999.90;999.90;;;23.30;42.20;;;;;;5102848;28;20028;-72
2023/07/31 10:42:59;;;;;;;1526.90;775.70;;;24.00;42.20;;;;;;5103159;28;20081;-72
2023/07/31 10:45:27;;;;;;;1999.90;999.90;;;24.20;45.20;;;;;;5106398;28;20089;-72
2023/07/31 10:48:01;;;;;;;1999.90;999.90;;;24.30;43.00;;;;;;5108022;28;20108;-72
2023/07/31 10:50:27;;;;;;;1999.90;999.90;;;24.60;43.20;;;;;;5107610;28;20020;-72
2023/07/31 10:52:55;;;;;;;1999.90;999.90;;;24.40;43.10;;;;;;5110599;28;20031;-72
2023/07/31 10:55:25;;;;;;;1999.90;999.90;;;24.30;39.20;;;;;;5115511;28;20120;-71
2023/07/31 10:57:52;;;;;;;1999.90;999.90;;;24.50;38.70;;;;;;5105860;28;20062;-73
2023/07/31 11:00:28;;;;;;;1999.90;999.90;;;24.40;39.00;;;;;;5120481;28;20409;-72
2023/07/31 11:03:17;;;;;;;1999.90;999.90;;;24.00;39.30;;;;;;5113986;28;20024;-72
2023/07/31 11:05:55;;;;;;;1999.90;999.90;;;23.30;39.90;;;;;;5112025;28;20246;-72
2023/07/31 11:08:25;;;;;;;1999.90;999.90;;;23.20;41.20;;;;;;5106899;28;20118;-72
2023/07/31 11:11:03;;;;;;;1999.90;999.90;;;23.30;41.30;;;;;;5089217;28;20047;-73
2023/07/31 11:13:56;;;;;;;1999.90;999.90;;;23.70;41.10;;;;;;5106908;28;20027;-72
2023/07/31 11:16:23;;;;;;;1999.90;999.90;;;24.30;43.10;;;;;;5087563;28;20430;-73
2023/07/31 11:18:51;;;;;;;1999.90;999.90;;;23.80;42.10;;;;;;5106647;28;20033;-73
2023/07/31 11:21:21;;;;;;;1999.90;999.90;;;24.80;38.90;;;;;;5107941;28;20024;-73
2023/07/31 11:23:49;;;;;;;1999.90;999.90;;;24.00;42.30;;;;;;5106514;28;20181;-73
2023/07/31 11:26:15;;;;;;;1999.90;999.90;;;23.40;42.70;;;;;;5107048;28;20034;-74
2023/07/31 11:28:43;;;;;;;1999.90;999.90;;;22.90;43.00;;;;;;5089029;28;20058;-73
2023/07/31 11:31:10;;;;;;;1999.90;999.90;;;22.70;42.70;;;;;;5108939;28;20027;-72
2023/07/31 11:33:36;;;;;;;1999.90;999.90;;;22.90;45.30;;;;;;5106440;28;20208;-72
2023/07/31 11:36:02;;;;;;;1999.90;999.90;;;22.50;42.40;;;;;;5106594;28;20102;-72
2023/07/31 11:38:30;;;;;;;1999.90;999.90;;;22.10;43.40;;;;;;5090038;28;20141;-72
2023/07/31 11:40:58;;;;;;;1999.90;999.90;;;22.50;44.80;;;;;;5107177;28;20034;-72
2023/07/31 11:43:24;;;;;;;1999.90;999.90;;;22.20;46.80;;;;;;5106533;28;20035;-71
2023/07/31 11:45:58;;;;;;;1999.90;999.90;;;22.50;48.20;;;;;;5110725;28;20035;-72
2023/07/31 11:48:35;;;;;;;1999.90;999.90;;;22.10;47.70;;;;;;5109824;28;20028;-73
2023/07/31 11:51:03;;;;;;;1999.90;999.90;;;22.40;45.10;;;;;;5094581;28;20088;-72
2023/07/31 11:53:41;;;;;;;1999.90;999.90;;;24.30;44.00;;;;;;5112164;28;20027;-74
2023/07/31 11:56:10;;;;;;;1999.90;999.90;;;25.10;40.00;;;;;;5108431;28;20113;-73
2023/07/31 11:58:37;;;;;;;1999.90;999.90;;;26.30;39.30;;;;;;5092511;28;20039;-73
2023/07/31 12:01:04;;;;;;;1999.90;999.90;;;26.70;36.70;;;;;;5106911;28;20023;-73
2023/07/31 12:03:30;;;;;;;1999.90;999.90;;;26.70;37.30;;;;;;5108842;28;20141;-72
2023/07/31 12:05:56;;;;;;;1999.90;999.90;;;26.50;34.00;;;;;;5106088;28;20114;-73
2023/07/31 12:08:24;;;;;;;1999.90;999.90;;;26.40;34.60;;;;;;5104417;28;20123;-72